createdAt,value
2022-12-26T00:00:56.648Z,0.90
2022-12-26T00:03:24.699Z,0.73
2022-12-26T00:05:52.563Z,0.43
2022-12-26T00:08:20.421Z,0.75
2022-12-26T00:10:49.682Z,0.93
2022-12-26T00:13:39.500Z,1.20
2022-12-26T00:16:07.406Z,0.85
2022-12-26T00:18:35.430Z,0.45
2022-12-26T00:21:03.300Z,0.88
2022-12-26T00:23:32.445Z,0.88
2022-12-26T00:26:04.752Z,1.08
2022-12-26T00:28:32.405Z,0.93
2022-12-26T00:31:00.342Z,0.68
2022-12-26T00:33:28.337Z,0.50
2022-12-26T00:36:01.494Z,1.13
2022-12-26T00:38:29.312Z,0.75
2022-12-26T00:40:57.208Z,1.23
2022-12-26T00:43:26.472Z,0.90
2022-12-26T00:45:54.218Z,0.75
2022-12-26T00:48:22.052Z,0.65
2022-12-26T00:50:49.793Z,1.85
2022-12-26T00:53:17.778Z,1.23
2022-12-26T00:55:45.612Z,1.00
2022-12-26T00:58:13.563Z,1.20
2022-12-26T01:00:43.033Z,0.90
2022-12-26T01:03:11.854Z,0.85
2022-12-26T01:05:41.609Z,1.05
2022-12-26T01:08:21.285Z,1.13
2022-12-26T01:10:51.934Z,0.63
2022-12-26T01:13:19.810Z,0.88
2022-12-26T01:15:53.120Z,0.50
2022-12-26T01:18:20.962Z,1.00
2022-12-26T01:20:49.334Z,1.10
2022-12-26T01:23:17.656Z,0.57
2022-12-26T01:26:15.790Z,0.93
2022-12-26T01:28:33.163Z,1.20
2022-12-26T01:31:05.751Z,0.77
2022-12-26T01:33:33.896Z,0.73
2022-12-26T01:36:01.720Z,0.90
2022-12-26T01:38:29.416Z,0.63
2022-12-26T01:41:10.997Z,0.93
2022-12-26T01:43:56.739Z,0.70
2022-12-26T01:46:28.605Z,0.60
2022-12-26T01:48:57.597Z,0.63
2022-12-26T01:51:26.945Z,0.77
2022-12-26T01:54:37.382Z,0.60
2022-12-26T01:56:46.693Z,1.10
2022-12-26T01:59:16.773Z,0.93
2022-12-26T02:01:46.852Z,0.90
2022-12-26T02:04:37.249Z,0.70
2022-12-26T02:07:05.592Z,1.10
2022-12-26T02:09:33.711Z,0.47
2022-12-26T02:12:34.785Z,0.73
2022-12-26T02:14:52.425Z,0.98
2022-12-26T02:17:21.837Z,0.60
2022-12-26T02:19:52.465Z,0.82
2022-12-26T02:22:33.626Z,0.70
2022-12-26T02:25:31.673Z,0.45
2022-12-26T02:28:11.616Z,0.82
2022-12-26T02:30:46.337Z,0.65
2022-12-26T02:33:31.861Z,1.05
2022-12-26T02:36:15.092Z,1.08
2022-12-26T02:38:47.613Z,1.00
2022-12-26T02:41:21.985Z,0.93
2022-12-26T02:43:53.842Z,0.80
2022-12-26T02:46:44.544Z,0.32
2022-12-26T02:49:16.507Z,0.90
2022-12-26T02:52:06.953Z,0.75
2022-12-26T02:54:56.583Z,0.90
2022-12-26T02:57:43.794Z,0.55
2022-12-26T03:00:32.193Z,0.98
2022-12-26T03:03:21.064Z,0.30
2022-12-26T03:06:11.522Z,0.40
2022-12-26T03:08:58.607Z,0.95
2022-12-26T03:11:44.904Z,0.77
2022-12-26T03:14:15.886Z,0.68
2022-12-26T03:17:16.424Z,0.63
2022-12-26T03:20:00.448Z,0.70
2022-12-26T03:22:32.482Z,0.68
2022-12-26T03:25:18.994Z,0.70
2022-12-26T03:27:47.154Z,0.55
2022-12-26T03:30:32.363Z,0.55
2022-12-26T03:33:00.543Z,0.60
2022-12-26T03:35:31.034Z,0.77
2022-12-26T03:38:00.683Z,0.63
2022-12-26T03:40:58.860Z,0.50
2022-12-26T03:43:50.952Z,0.60
2022-12-26T03:46:40.477Z,0.90
2022-12-26T03:49:27.744Z,0.73
2022-12-26T03:52:18.402Z,0.45
2022-12-26T03:55:06.573Z,0.60
2022-12-26T03:57:54.959Z,0.63
2022-12-26T04:00:40.676Z,0.98
2022-12-26T04:03:28.596Z,0.47
2022-12-26T04:06:15.206Z,0.80
2022-12-26T04:09:04.358Z,0.45
2022-12-26T04:11:50.794Z,0.93
2022-12-26T04:14:45.091Z,0.38
2022-12-26T04:17:38.864Z,0.63
2022-12-26T04:20:09.758Z,0.85
2022-12-26T04:22:58.357Z,0.45
2022-12-26T04:25:50.199Z,0.55
2022-12-26T04:28:37.413Z,0.70
2022-12-26T04:31:25.271Z,0.38
2022-12-26T04:34:13.355Z,0.60
2022-12-26T04:37:01.406Z,0.95
2022-12-26T04:39:49.860Z,0.22
2022-12-26T04:42:37.892Z,0.70
2022-12-26T04:45:06.945Z,0.50
2022-12-26T04:47:34.750Z,0.73
2022-12-26T04:50:15.045Z,0.60
2022-12-26T04:53:01.885Z,0.30
2022-12-26T04:55:30.747Z,0.68
2022-12-26T04:58:00.171Z,0.68
2022-12-26T05:00:28.896Z,0.60
2022-12-26T05:03:18.532Z,0.45
2022-12-26T05:06:08.352Z,0.68
2022-12-26T05:08:55.154Z,0.77
2022-12-26T05:11:23.844Z,0.35
2022-12-26T05:13:54.325Z,0.50
2022-12-26T05:16:40.001Z,0.65
2022-12-26T05:19:25.274Z,0.50
2022-12-26T05:22:10.608Z,0.38
2022-12-26T05:24:56.985Z,0.47
2022-12-26T05:27:42.254Z,0.80
2022-12-26T05:30:12.191Z,0.43
2022-12-26T05:32:57.712Z,0.60
2022-12-26T05:35:25.467Z,0.40
2022-12-26T05:37:53.294Z,0.40
2022-12-26T05:40:21.052Z,0.70
2022-12-26T05:42:48.862Z,0.50
2022-12-26T05:45:18.005Z,0.50
2022-12-26T05:47:49.996Z,0.70
2022-12-26T05:50:19.801Z,0.30
2022-12-26T05:52:47.645Z,0.50
2022-12-26T05:55:15.559Z,0.40
2022-12-26T05:57:43.326Z,0.70
2022-12-26T06:00:11.924Z,0.60
2022-12-26T06:02:41.222Z,0.50
2022-12-26T06:05:09.525Z,0.57
2022-12-26T06:07:37.299Z,0.47
2022-12-26T06:10:06.459Z,0.40
2022-12-26T06:12:34.493Z,0.32
2022-12-26T06:15:02.534Z,0.60
2022-12-26T06:17:30.242Z,0.52
2022-12-26T06:19:59.542Z,0.57
2022-12-26T06:22:29.668Z,0.70
2022-12-26T06:24:57.422Z,0.40
2022-12-26T06:27:25.224Z,0.70
2022-12-26T06:29:53.071Z,0.50
2022-12-26T06:32:20.941Z,0.40
2022-12-26T06:34:48.871Z,0.70
2022-12-26T06:37:18.071Z,0.40
2022-12-26T06:39:45.846Z,0.55
2022-12-26T06:42:13.547Z,0.52
2022-12-26T06:44:41.312Z,0.30
2022-12-26T06:47:09.160Z,0.57
2022-12-26T06:49:37.315Z,0.60
2022-12-26T06:52:05.270Z,0.40
2022-12-26T06:54:35.127Z,0.30
2022-12-26T06:57:02.914Z,0.70
2022-12-26T06:59:30.758Z,0.30
2022-12-26T07:01:58.624Z,0.50
2022-12-26T07:04:26.646Z,0.45
2022-12-26T07:06:54.429Z,0.30
2022-12-26T07:09:22.169Z,0.52
2022-12-26T07:11:51.772Z,0.30
2022-12-26T07:14:19.475Z,0.40
2022-12-26T07:16:47.573Z,0.50
2022-12-26T07:19:16.299Z,0.65
2022-12-26T07:21:44.565Z,0.50
2022-12-26T07:24:15.313Z,0.70
2022-12-26T07:26:43.062Z,0.30
2022-12-26T07:29:13.087Z,0.60
2022-12-26T07:31:40.868Z,0.50
2022-12-26T07:34:08.919Z,0.40
2022-12-26T07:36:36.805Z,0.40
2022-12-26T07:39:04.768Z,0.40
2022-12-26T07:41:49.817Z,0.65
2022-12-26T07:44:19.006Z,0.50
2022-12-26T07:46:47.616Z,0.50
2022-12-26T07:49:15.601Z,0.70
2022-12-26T07:51:43.956Z,0.70
2022-12-26T07:54:12.104Z,0.30
2022-12-26T07:56:40.071Z,0.60
2022-12-26T07:59:07.840Z,0.40
2022-12-26T08:01:36.900Z,0.38
2022-12-26T08:04:04.927Z,0.52
2022-12-26T08:06:32.639Z,0.50
2022-12-26T08:09:00.377Z,0.50
2022-12-26T08:11:28.894Z,0.45
2022-12-26T08:13:56.718Z,0.88
2022-12-26T08:16:24.457Z,0.30
2022-12-26T08:18:53.730Z,0.43
2022-12-26T08:21:21.490Z,0.70
2022-12-26T08:23:49.247Z,0.40
2022-12-26T08:26:22.654Z,0.30
2022-12-26T08:28:51.247Z,0.57
2022-12-26T08:31:20.280Z,0.25
2022-12-26T08:33:48.349Z,0.28
2022-12-26T08:36:19.154Z,0.30
2022-12-26T08:38:47.239Z,0.40
2022-12-26T08:41:17.415Z,0.30
2022-12-26T08:44:24.990Z,0.40
2022-12-26T08:46:33.004Z,0.50
2022-12-26T08:49:00.856Z,0.30
2022-12-26T08:51:30.125Z,0.50
2022-12-26T08:53:57.826Z,0.30
2022-12-26T08:56:26.563Z,0.50
2022-12-26T08:58:54.385Z,0.40
2022-12-26T09:01:23.357Z,0.30
2022-12-26T09:03:53.205Z,0.40
2022-12-26T09:06:20.850Z,0.30
2022-12-26T09:08:50.291Z,0.50
2022-12-26T09:11:18.922Z,0.38
2022-12-26T09:13:47.348Z,0.20
2022-12-26T09:16:16.327Z,0.40
2022-12-26T09:18:44.219Z,0.40
2022-12-26T09:21:12.749Z,0.40
2022-12-26T09:23:41.383Z,0.40
2022-12-26T09:26:11.603Z,0.65
2022-12-26T09:28:39.362Z,0.50
2022-12-26T09:31:07.906Z,0.40
2022-12-26T09:33:37.736Z,0.40
2022-12-26T09:36:10.999Z,0.60
2022-12-26T09:38:41.910Z,0.50
2022-12-26T09:41:18.890Z,0.50
2022-12-26T09:43:51.967Z,0.50
2022-12-26T09:46:25.598Z,0.55
2022-12-26T09:48:57.462Z,0.35
2022-12-26T09:51:26.097Z,0.50
2022-12-26T09:53:54.986Z,0.80
2022-12-26T09:59:14.625Z,0.65
2022-12-26T10:01:43.520Z,0.70
2022-12-26T10:04:17.637Z,0.57
2022-12-26T10:06:47.448Z,0.60
2022-12-26T10:09:22.226Z,0.63
2022-12-26T10:12:10.152Z,0.68
2022-12-26T10:14:41.803Z,0.80
2022-12-26T10:17:14.847Z,0.50
2022-12-26T10:19:47.433Z,0.63
2022-12-26T10:22:29.709Z,0.40
2022-12-26T10:24:58.559Z,0.70
2022-12-26T10:27:28.843Z,0.47
2022-12-26T10:29:58.527Z,0.50
2022-12-26T10:32:28.334Z,0.50
2022-12-26T10:34:56.225Z,0.70
2022-12-26T10:37:25.552Z,0.70
2022-12-26T10:39:56.108Z,0.60
2022-12-26T10:42:25.804Z,0.77
2022-12-26T10:44:55.211Z,0.60
2022-12-26T10:47:27.361Z,0.70
2022-12-26T10:49:59.767Z,0.55
2022-12-26T10:52:29.188Z,0.57
2022-12-26T10:55:27.053Z,0.45
2022-12-26T10:57:48.625Z,0.77
2022-12-26T11:00:19.717Z,0.60
2022-12-26T11:03:01.266Z,0.65
2022-12-26T11:08:18.338Z,0.65
2022-12-26T11:10:49.679Z,1.08
2022-12-26T11:13:20.405Z,0.70
2022-12-26T11:15:50.734Z,0.70
2022-12-26T11:18:20.647Z,0.73
2022-12-26T11:20:48.726Z,0.70
2022-12-26T11:23:27.337Z,0.90
2022-12-26T11:25:56.058Z,0.77
2022-12-26T11:28:31.884Z,0.88
2022-12-26T11:31:01.974Z,1.00
2022-12-26T11:33:31.265Z,0.90
2022-12-26T11:36:04.248Z,1.10
2022-12-26T11:38:44.888Z,0.73
2022-12-26T11:41:33.581Z,0.70
2022-12-26T11:44:04.477Z,0.80
2022-12-26T11:46:39.382Z,0.95
2022-12-26T11:49:07.784Z,0.60
2022-12-26T11:51:37.182Z,0.65
2022-12-26T11:54:19.081Z,0.98
2022-12-26T11:56:47.142Z,0.85
2022-12-26T11:59:19.025Z,0.95
2022-12-26T12:01:48.334Z,0.70
2022-12-26T12:04:17.312Z,0.73
2022-12-26T12:06:50.490Z,0.70
2022-12-26T12:09:22.653Z,0.80
2022-12-26T12:11:55.051Z,0.80
2022-12-26T12:14:29.803Z,0.75
2022-12-26T12:17:03.248Z,1.08
2022-12-26T12:19:46.425Z,0.98
2022-12-26T12:22:31.907Z,0.70
2022-12-26T12:25:08.798Z,1.02
2022-12-26T12:27:38.997Z,0.80
2022-12-26T12:30:24.173Z,0.88
2022-12-26T12:33:02.469Z,0.77
2022-12-26T12:35:35.636Z,0.80
2022-12-26T12:38:11.191Z,0.75
2022-12-26T12:40:47.256Z,0.80
2022-12-26T12:43:18.193Z,0.68
2022-12-26T12:45:49.934Z,0.60
2022-12-26T12:48:31.497Z,0.82
2022-12-26T12:51:03.101Z,0.80
2022-12-26T12:53:36.343Z,0.70
2022-12-26T12:56:12.808Z,0.80
2022-12-26T12:58:45.384Z,0.82
2022-12-26T13:01:16.689Z,0.70
2022-12-26T13:03:50.240Z,0.70
2022-12-26T13:06:21.833Z,0.93
2022-12-26T13:08:51.550Z,0.70
2022-12-26T13:11:22.902Z,0.50
2022-12-26T13:13:53.887Z,0.65
2022-12-26T13:16:23.669Z,0.70
2022-12-26T13:18:54.767Z,0.60
2022-12-26T13:21:23.307Z,0.80
2022-12-26T13:24:11.655Z,0.70
2022-12-26T13:26:41.156Z,0.80
2022-12-26T13:29:13.107Z,0.80
2022-12-26T13:31:41.918Z,0.52
2022-12-26T13:34:12.079Z,1.00
2022-12-26T13:36:41.743Z,0.73
2022-12-26T13:39:30.735Z,0.90
2022-12-26T13:42:18.770Z,1.10
2022-12-26T13:44:51.339Z,0.60
2022-12-26T13:47:34.583Z,0.80
2022-12-26T13:50:17.241Z,0.52
2022-12-26T13:52:47.234Z,0.70
2022-12-26T13:55:32.535Z,0.73
2022-12-26T13:58:24.208Z,0.70
2022-12-26T14:00:53.668Z,0.57
2022-12-26T14:03:27.246Z,0.50
2022-12-26T14:06:10.035Z,0.75
2022-12-26T14:08:48.472Z,0.70
2022-12-26T14:11:28.728Z,0.80
2022-12-26T14:14:02.683Z,0.73
2022-12-26T14:16:33.592Z,0.70
2022-12-26T14:19:06.325Z,0.60
2022-12-26T14:21:41.242Z,0.73
2022-12-26T14:24:19.482Z,0.95
2022-12-26T14:26:50.729Z,0.90
2022-12-26T14:29:26.047Z,0.82
2022-12-26T14:32:01.003Z,0.70
2022-12-26T14:34:45.409Z,0.98
2022-12-26T14:37:19.344Z,1.00
2022-12-26T14:40:02.102Z,0.88
2022-12-26T14:42:48.033Z,0.85
2022-12-26T14:45:30.604Z,1.02
2022-12-26T14:47:58.444Z,1.00
2022-12-26T14:50:36.713Z,0.88
2022-12-26T14:53:23.361Z,1.02
2022-12-26T14:55:53.425Z,0.75
2022-12-26T14:58:26.675Z,0.90
2022-12-26T15:00:55.054Z,0.90
2022-12-26T15:03:41.838Z,1.30
2022-12-26T15:06:33.643Z,1.17
2022-12-26T15:09:10.616Z,1.08
2022-12-26T15:11:59.498Z,1.25
2022-12-26T15:14:44.645Z,1.10
2022-12-26T15:17:17.382Z,1.05
2022-12-26T15:20:03.157Z,1.25
2022-12-26T15:23:01.018Z,0.90
2022-12-26T15:25:46.507Z,1.10
2022-12-26T15:28:25.969Z,1.05
2022-12-26T15:31:06.814Z,1.10
2022-12-26T15:33:40.378Z,1.00
2022-12-26T15:36:14.237Z,1.05
2022-12-26T15:38:47.342Z,1.05
2022-12-26T15:41:17.215Z,1.20
2022-12-26T15:43:50.499Z,1.10
2022-12-26T15:46:22.389Z,1.30
2022-12-26T15:48:58.377Z,1.10
2022-12-26T15:51:31.761Z,1.33
2022-12-26T15:54:03.985Z,1.00
2022-12-26T15:56:43.523Z,1.40
2022-12-26T15:59:24.549Z,1.52
2022-12-26T16:01:54.102Z,1.00
2022-12-26T16:04:25.654Z,1.17
2022-12-26T16:07:02.735Z,1.10
2022-12-26T16:09:40.216Z,1.08
2022-12-26T16:12:20.583Z,1.13
2022-12-26T16:14:48.773Z,0.93
2022-12-26T16:17:23.011Z,1.20
2022-12-26T16:19:51.800Z,1.00
2022-12-26T16:22:40.409Z,0.90
2022-12-26T16:25:08.989Z,1.15
2022-12-26T16:27:37.675Z,1.20
2022-12-26T16:30:11.952Z,1.20
2022-12-26T16:32:42.554Z,1.67
2022-12-26T16:35:18.004Z,0.95
2022-12-26T16:37:46.134Z,0.80
2022-12-26T16:40:19.492Z,1.30
2022-12-26T16:42:55.634Z,1.17
2022-12-26T16:45:24.164Z,1.13
2022-12-26T16:47:53.511Z,1.13
2022-12-26T16:50:22.708Z,1.30
2022-12-26T16:52:50.889Z,0.90
2022-12-26T16:55:26.540Z,1.25
2022-12-26T16:57:56.758Z,1.30
2022-12-26T17:00:25.140Z,1.20
2022-12-26T17:02:55.958Z,1.20
2022-12-26T17:05:26.043Z,1.00
2022-12-26T17:07:55.686Z,0.90
2022-12-26T17:10:25.726Z,1.20
2022-12-26T17:12:53.980Z,1.20
2022-12-26T17:15:22.666Z,1.10
2022-12-26T17:17:50.629Z,1.20
2022-12-26T17:20:37.087Z,1.05
2022-12-26T17:23:23.317Z,1.20
2022-12-26T17:25:51.288Z,1.33
2022-12-26T17:28:23.257Z,1.08
2022-12-26T17:30:53.326Z,1.10
2022-12-26T17:33:22.570Z,1.00
2022-12-26T17:38:40.572Z,1.15
2022-12-26T17:41:09.774Z,1.10
2022-12-26T17:43:38.441Z,1.25
2022-12-26T17:46:07.177Z,1.05
2022-12-26T17:48:35.310Z,1.40
2022-12-26T17:51:05.479Z,1.33
2022-12-26T17:53:34.783Z,1.40
2022-12-26T17:56:03.871Z,1.42
2022-12-26T17:58:32.354Z,1.40
2022-12-26T18:01:00.241Z,1.88
2022-12-26T18:03:28.342Z,1.58
2022-12-26T18:05:57.422Z,1.30
2022-12-26T18:08:30.281Z,1.50
2022-12-26T18:10:58.128Z,1.20
2022-12-26T18:13:25.840Z,1.63
2022-12-26T18:15:54.438Z,1.40
2022-12-26T18:18:24.807Z,1.73
2022-12-26T18:20:52.558Z,1.90
2022-12-26T18:23:20.302Z,1.70
2022-12-26T18:25:54.321Z,2.20
2022-12-26T18:28:22.616Z,2.00
2022-12-26T18:30:51.715Z,1.45
2022-12-26T18:33:19.464Z,1.80
2022-12-26T18:35:47.945Z,1.75
2022-12-26T18:38:16.218Z,1.67
2022-12-26T18:40:45.210Z,2.00
2022-12-26T18:43:14.652Z,1.77
2022-12-26T18:45:43.185Z,1.65
2022-12-26T18:48:13.595Z,1.90
2022-12-26T18:50:41.389Z,1.70
2022-12-26T18:53:09.268Z,1.70
2022-12-26T18:55:36.984Z,1.70
2022-12-26T18:58:04.811Z,1.73
2022-12-26T19:00:34.129Z,2.03
2022-12-26T19:03:01.984Z,1.98
2022-12-26T19:05:31.154Z,1.88
2022-12-26T19:07:59.457Z,1.88
2022-12-26T19:10:28.938Z,1.90
2022-12-26T19:13:02.898Z,1.75
2022-12-26T19:15:34.453Z,2.05
2022-12-26T19:18:02.246Z,2.00
2022-12-26T19:20:30.147Z,1.80
2022-12-26T19:22:57.865Z,2.00
2022-12-26T19:25:26.603Z,2.30
2022-12-26T19:27:54.759Z,1.90
2022-12-26T19:30:23.252Z,2.28
2022-12-26T19:32:52.495Z,1.90
2022-12-26T19:35:20.208Z,1.77
2022-12-26T19:37:48.238Z,2.22
2022-12-26T19:40:22.946Z,2.08
2022-12-26T19:42:52.567Z,2.05
2022-12-26T19:45:20.478Z,1.98
2022-12-26T19:47:48.345Z,2.25
2022-12-26T19:50:17.673Z,1.95
2022-12-26T19:52:45.507Z,2.40
2022-12-26T19:55:13.285Z,1.95
2022-12-26T19:57:41.034Z,2.50
2022-12-26T20:00:09.443Z,2.13
2022-12-26T20:02:40.698Z,0.88
2022-12-26T20:05:09.399Z,1.05
2022-12-26T20:07:38.901Z,1.15
2022-12-26T20:10:07.177Z,1.45
2022-12-26T20:12:34.978Z,1.00
2022-12-26T20:15:02.800Z,0.88
2022-12-26T20:17:30.675Z,0.93
2022-12-26T20:19:58.568Z,0.63
2022-12-26T20:22:26.333Z,0.90
2022-12-26T20:24:55.428Z,0.80
2022-12-26T20:27:23.194Z,1.00
2022-12-26T20:29:51.012Z,1.33
2022-12-26T20:32:18.825Z,1.17
2022-12-26T20:34:46.688Z,0.85
2022-12-26T20:37:14.603Z,1.25
2022-12-26T20:39:42.469Z,1.05
2022-12-26T20:42:15.608Z,1.00
2022-12-26T20:44:43.422Z,1.35
2022-12-26T20:47:11.171Z,1.23
2022-12-26T20:49:38.871Z,0.68
2022-12-26T20:52:06.759Z,0.80
2022-12-26T20:54:34.644Z,1.13
2022-12-26T20:57:02.998Z,1.10
2022-12-26T20:59:32.254Z,0.90
2022-12-26T21:02:00.216Z,0.90
2022-12-26T21:04:28.136Z,1.13
2022-12-26T21:06:56.054Z,0.85
2022-12-26T21:09:23.916Z,0.75
2022-12-26T21:11:51.727Z,1.00
2022-12-26T21:14:20.758Z,0.85
2022-12-26T21:16:51.357Z,0.82
2022-12-26T21:19:19.530Z,0.85
2022-12-26T21:21:48.330Z,0.90
2022-12-26T21:24:17.398Z,0.90
2022-12-26T21:26:45.628Z,0.90
2022-12-26T21:29:14.530Z,1.08
2022-12-26T21:31:42.697Z,0.82
2022-12-26T21:34:13.677Z,0.70
2022-12-26T21:36:41.495Z,0.90
2022-12-26T21:39:09.981Z,1.05
2022-12-26T21:41:37.830Z,0.75
2022-12-26T21:44:05.815Z,0.88
2022-12-26T21:46:33.676Z,0.82
2022-12-26T21:49:01.356Z,0.75
2022-12-26T21:51:32.270Z,1.42
2022-12-26T21:54:13.912Z,0.68
2022-12-26T21:56:41.717Z,0.80
2022-12-26T21:59:27.721Z,0.63
2022-12-26T22:01:55.606Z,0.35
2022-12-26T22:04:23.860Z,0.68
2022-12-26T22:06:53.207Z,1.00
2022-12-26T22:09:21.280Z,0.95
2022-12-26T22:12:06.385Z,0.98
2022-12-26T22:14:34.867Z,1.20
2022-12-26T22:17:02.693Z,1.17
2022-12-26T22:19:30.735Z,0.85
2022-12-26T22:21:59.759Z,0.70
2022-12-26T22:24:27.549Z,0.90
2022-12-26T22:26:55.397Z,0.57
2022-12-26T22:29:23.140Z,0.65
2022-12-26T22:31:50.944Z,0.70
2022-12-26T22:34:18.713Z,0.90
2022-12-26T22:36:46.471Z,0.80
2022-12-26T22:39:17.531Z,0.90
2022-12-26T22:41:45.663Z,1.02
2022-12-26T22:44:13.532Z,0.80
2022-12-26T22:46:41.620Z,0.75
2022-12-26T22:49:09.743Z,1.25
2022-12-26T22:51:37.551Z,0.80
2022-12-26T22:54:05.477Z,1.77
2022-12-26T22:56:35.335Z,0.55
2022-12-26T22:59:03.360Z,0.77
2022-12-26T23:01:31.611Z,1.00
2022-12-26T23:04:00.881Z,0.70
2022-12-26T23:06:29.621Z,0.95
2022-12-26T23:08:58.142Z,0.93
2022-12-26T23:11:33.949Z,0.88
2022-12-26T23:14:04.923Z,1.23
2022-12-26T23:16:34.460Z,1.02
2022-12-26T23:19:21.418Z,0.73
2022-12-26T23:21:50.558Z,0.60
2022-12-26T23:24:20.452Z,1.05
2022-12-26T23:26:49.245Z,0.82
2022-12-26T23:29:37.008Z,0.80
2022-12-26T23:32:05.165Z,1.10
2022-12-26T23:34:33.207Z,1.42
2022-12-26T23:37:01.045Z,0.75
2022-12-26T23:39:28.790Z,0.70
2022-12-26T23:41:56.512Z,0.50
2022-12-26T23:44:25.843Z,1.30
2022-12-26T23:46:53.712Z,0.95
2022-12-26T23:49:21.581Z,1.13
2022-12-26T23:51:49.393Z,0.95
2022-12-26T23:54:17.290Z,0.90
2022-12-26T23:56:45.126Z,0.77
2022-12-26T23:59:12.987Z,0.50
